Time;durP1;ratioP1;P1;durP2;ratioP2;P2;SDS_P1;SDS_P2;PMS_P1;PMS_P2;Temp;Humidity;BMP_temperature;BMP_pressure;BME280_temperature;BME280_humidity;BME280_pressure;Samples;Min_cycle;Max_cycle;Signal;HPM_P1;HPM_P2
2022/04/07 00:01:09;;;;;;;12.70;2.28;;;9.40;99.90;;;;;;5038141;28;20040;-66
2022/04/07 00:03:35;;;;;;;11.68;1.90;;;9.40;99.90;;;;;;5065830;28;20106;-66
2022/04/07 00:06:01;;;;;;;13.95;2.00;;;9.40;99.90;;;;;;5076466;28;20045;-66
2022/04/07 00:08:27;;;;;;;6.72;1.45;;;9.40;99.90;;;;;;5077714;28;20552;-67
2022/04/07 00:10:53;;;;;;;8.90;1.73;;;9.40;99.90;;;;;;5043327;28;20079;-67
2022/04/07 00:13:18;;;;;;;6.57;1.83;;;9.30;99.90;;;;;;5070819;28;20130;-67
2022/04/07 00:15:44;;;;;;;9.57;1.40;;;9.40;99.90;;;;;;5050025;28;20147;-67
2022/04/07 00:18:10;;;;;;;7.70;1.63;;;9.40;99.90;;;;;;5051945;28;20496;-66
2022/04/07 00:20:36;;;;;;;8.68;1.58;;;9.30;99.90;;;;;;5047555;28;20048;-70
2022/04/07 00:23:03;;;;;;;6.43;2.10;;;9.30;99.90;;;;;;5023024;28;20044;-69
2022/04/07 00:25:30;;;;;;;15.00;1.83;;;9.30;99.90;;;;;;5052148;28;20045;-70
2022/04/07 00:27:55;;;;;;;14.18;1.92;;;9.30;99.90;;;;;;5053143;28;20099;-70
2022/04/07 00:30:21;;;;;;;12.07;2.07;;;9.30;99.90;;;;;;5029606;28;20041;-71
2022/04/07 00:32:49;;;;;;;11.70;2.35;;;9.30;99.90;;;;;;5038330;28;20048;-70
2022/04/07 00:35:15;;;;;;;11.48;2.47;;;9.40;99.90;;;;;;5031978;28;20048;-69
2022/04/07 00:37:41;;;;;;;13.18;2.20;;;9.30;99.90;;;;;;5029482;28;20048;-70
2022/04/07 00:40:08;;;;;;;12.38;1.90;;;9.40;99.90;;;;;;5032737;28;20048;-71
2022/04/07 00:42:33;;;;;;;17.33;3.30;;;9.40;99.90;;;;;;5032044;28;20043;-70
2022/04/07 00:45:04;;;;;;;14.03;2.30;;;9.40;99.90;;;;;;5048148;22;20171;-70
2022/04/07 00:47:29;;;;;;;15.45;2.53;;;9.40;99.90;;;;;;5036381;28;20123;-70
2022/04/07 00:49:55;;;;;;;9.83;2.27;;;9.30;99.90;;;;;;5046042;28;20037;-70
2022/04/07 00:52:21;;;;;;;22.60;2.95;;;9.40;99.90;;;;;;5016424;28;20045;-71
2022/04/07 00:54:48;;;;;;;28.35;3.33;;;9.40;99.90;;;;;;5038149;28;20045;-71
2022/04/07 00:57:14;;;;;;;13.02;2.55;;;9.40;99.90;;;;;;5037809;28;20044;-71
2022/04/07 00:59:40;;;;;;;13.38;3.20;;;9.40;99.90;;;;;;5025570;28;20306;-70
2022/04/07 01:02:06;;;;;;;16.47;2.60;;;9.40;99.90;;;;;;5022051;28;20291;-70
2022/04/07 01:04:32;;;;;;;;;;;9.40;99.90;;;;;;5037767;28;20072;-71
2022/04/07 01:06:58;;;;;;;16.42;2.42;;;9.40;99.90;;;;;;5037597;28;20411;-71
2022/04/07 01:09:23;;;;;;;18.67;4.57;;;9.40;99.90;;;;;;5042043;28;20140;-72
2022/04/07 01:11:51;;;;;;;19.17;2.95;;;9.40;99.90;;;;;;5017543;28;20485;-71
2022/04/07 01:14:16;;;;;;;18.42;2.63;;;9.30;99.90;;;;;;5039130;28;20060;-70
2022/04/07 01:16:42;;;;;;;28.23;3.43;;;9.30;99.90;;;;;;5039127;28;20064;-71
2022/04/07 01:19:11;;;;;;;14.43;2.17;;;9.30;99.90;;;;;;5038713;28;20088;-71
2022/04/07 01:21:37;;;;;;;15.98;2.42;;;9.30;99.90;;;;;;5034051;28;20136;-71
2022/04/07 01:24:07;;;;;;;18.40;2.53;;;9.20;99.90;;;;;;5040306;28;20099;-72
2022/04/07 01:26:37;;;;;;;17.52;2.72;;;9.20;99.90;;;;;;5035870;28;20095;-71
2022/04/07 01:29:11;;;;;;;19.48;3.50;;;9.20;99.90;;;;;;5034154;28;20379;-71
2022/04/07 01:31:38;;;;;;;20.60;3.88;;;9.20;99.90;;;;;;5038764;28;20484;-71
2022/04/07 01:34:05;;;;;;;;;;;9.20;99.90;;;;;;5037448;28;20052;-71
2022/04/07 01:36:35;;;;;;;25.20;2.67;;;9.20;99.90;;;;;;5034331;28;20008;-71
2022/04/07 01:39:02;;;;;;;11.55;2.95;;;9.20;99.90;;;;;;5041817;28;20300;-72
2022/04/07 01:41:28;;;;;;;24.15;3.25;;;9.20;99.90;;;;;;5035305;28;20053;-71
2022/04/07 01:43:59;;;;;;;25.43;3.87;;;9.20;99.90;;;;;;5039087;28;20067;-72
2022/04/07 01:46:26;;;;;;;22.25;3.55;;;9.30;99.90;;;;;;5031143;28;20041;-71
2022/04/07 01:48:53;;;;;;;17.15;2.58;;;9.30;99.90;;;;;;5036411;28;20414;-70
2022/04/07 01:51:19;;;;;;;17.05;3.17;;;9.30;99.90;;;;;;5034017;28;20057;-72
2022/04/07 01:53:46;;;;;;;21.85;3.35;;;9.30;99.90;;;;;;5034088;28;20413;-70
2022/04/07 01:56:12;;;;;;;31.02;4.03;;;9.30;99.90;;;;;;5033682;28;20246;-70
2022/04/07 01:58:39;;;;;;;15.77;3.22;;;9.30;99.90;;;;;;5033944;28;20456;-71
2022/04/07 02:01:05;;;;;;;20.70;4.03;;;9.30;99.90;;;;;;5028777;28;20037;-70
2022/04/07 02:03:31;;;;;;;14.73;2.87;;;9.30;99.90;;;;;;5035842;28;20543;-71
2022/04/07 02:06:13;;;;;;;27.05;3.70;;;9.30;99.90;;;;;;5034754;28;20639;-70
2022/04/07 02:08:39;;;;;;;21.10;3.38;;;9.30;99.90;;;;;;5035208;28;20393;-72
2022/04/07 02:11:04;;;;;;;21.30;3.03;;;9.30;99.90;;;;;;5030013;28;20422;-70
2022/04/07 02:13:34;;;;;;;18.20;2.58;;;9.30;99.90;;;;;;5041354;28;20119;-70
2022/04/07 02:16:01;;;;;;;21.75;4.97;;;9.30;99.90;;;;;;5022796;28;20061;-71
2022/04/07 02:18:27;;;;;;;24.42;3.15;;;9.30;99.90;;;;;;5037730;28;20489;-71
2022/04/07 02:20:52;;;;;;;19.55;3.70;;;9.30;99.90;;;;;;5037373;28;20063;-71
2022/04/07 02:23:18;;;;;;;20.83;4.20;;;9.30;99.90;;;;;;5040005;28;20067;-71
2022/04/07 02:25:43;;;;;;;20.97;2.83;;;9.30;99.90;;;;;;5028780;28;20037;-72
2022/04/07 02:28:09;;;;;;;19.97;3.37;;;9.30;99.90;;;;;;5035810;28;20559;-70
2022/04/07 02:30:35;;;;;;;18.10;2.50;;;9.30;99.90;;;;;;5040938;28;20495;-70
2022/04/07 02:33:01;;;;;;;12.80;2.70;;;9.30;99.90;;;;;;5042367;28;20098;-71
2022/04/07 02:35:26;;;;;;;19.53;3.00;;;9.40;99.90;;;;;;5038823;28;20401;-71
2022/04/07 02:37:52;;;;;;;17.10;2.87;;;9.30;99.90;;;;;;5034923;28;20778;-71
2022/04/07 02:40:17;;;;;;;9.60;2.03;;;9.40;99.90;;;;;;5037392;28;20032;-71
2022/04/07 02:42:43;;;;;;;24.50;3.37;;;9.30;99.90;;;;;;5036601;28;20124;-71
2022/04/07 02:45:09;;;;;;;23.33;3.67;;;9.30;99.90;;;;;;5035098;28;20345;-72
2022/04/07 02:47:38;;;;;;;13.80;2.43;;;9.30;99.90;;;;;;5039637;28;20139;-71
2022/04/07 02:50:04;;;;;;;16.25;4.38;;;9.30;99.90;;;;;;5040704;28;20132;-72
2022/04/07 02:52:30;;;;;;;10.30;2.10;;;9.30;99.90;;;;;;5029106;28;20183;-71
2022/04/07 02:54:55;;;;;;;16.07;2.93;;;9.30;99.90;;;;;;5028774;28;20048;-71
2022/04/07 02:57:25;;;;;;;14.37;2.40;;;9.30;99.90;;;;;;5036544;28;20393;-71
2022/04/07 02:59:51;;;;;;;24.35;3.20;;;9.30;99.90;;;;;;5026124;28;20048;-71
2022/04/07 03:02:17;;;;;;;;;;;9.30;99.90;;;;;;5034502;28;20049;-71
2022/04/07 03:04:42;;;;;;;19.17;3.67;;;9.30;99.90;;;;;;5036324;28;19924;-71
2022/04/07 03:07:08;;;;;;;11.77;1.90;;;9.30;99.90;;;;;;5035766;28;20051;-72
2022/04/07 03:09:34;;;;;;;13.83;2.70;;;9.30;99.90;;;;;;5036319;28;20037;-71
2022/04/07 03:11:59;;;;;;;12.27;2.97;;;9.30;99.90;;;;;;5025744;28;20234;-72
2022/04/07 03:14:27;;;;;;;11.67;2.53;;;9.30;99.90;;;;;;5038907;28;20048;-71
2022/04/07 03:16:53;;;;;;;15.43;2.53;;;9.30;99.90;;;;;;5031844;28;20429;-71
2022/04/07 03:19:19;;;;;;;14.32;2.75;;;9.30;99.90;;;;;;5024396;28;20041;-72
2022/04/07 03:21:45;;;;;;;17.25;2.30;;;9.30;99.90;;;;;;5039659;28;20052;-71
2022/04/07 03:24:11;;;;;;;24.20;4.95;;;9.30;99.90;;;;;;5033934;28;20044;-71
2022/04/07 03:26:40;;;;;;;;;;;9.30;99.90;;;;;;5034637;28;20413;-72
2022/04/07 03:29:06;;;;;;;24.38;4.00;;;9.40;99.90;;;;;;5027697;28;20288;-71
2022/04/07 03:31:31;;;;;;;18.03;2.73;;;9.40;99.90;;;;;;5035981;28;20041;-72
2022/04/07 03:33:57;;;;;;;19.33;3.50;;;9.40;99.90;;;;;;5037125;28;20047;-71
2022/04/07 03:36:23;;;;;;;21.42;2.60;;;9.40;99.90;;;;;;5035094;28;20049;-72
2022/04/07 03:38:51;;;;;;;19.47;2.83;;;9.50;99.90;;;;;;5032063;28;20041;-70
2022/04/07 03:41:17;;;;;;;17.10;3.72;;;9.50;99.90;;;;;;5039239;28;20041;-71
2022/04/07 03:43:43;;;;;;;10.77;2.03;;;9.50;99.90;;;;;;5037501;28;20041;-72
2022/04/07 03:46:10;;;;;;;20.60;2.95;;;9.50;99.90;;;;;;5035657;28;20409;-71
2022/04/07 03:48:35;;;;;;;17.90;3.65;;;9.40;99.90;;;;;;5032554;28;20041;-71
2022/04/07 03:51:02;;;;;;;18.40;3.20;;;9.50;99.90;;;;;;5034865;28;20470;-71
2022/04/07 03:53:27;;;;;;;;;;;9.50;99.90;;;;;;5036356;28;20037;-70
2022/04/07 03:55:53;;;;;;;21.73;3.33;;;9.50;99.90;;;;;;5030018;28;19924;-72
2022/04/07 03:58:19;;;;;;;25.10;3.10;;;9.40;99.90;;;;;;5029392;28;20072;-71
2022/04/07 04:00:44;;;;;;;19.60;3.60;;;9.40;99.90;;;;;;5034909;28;20037;-70
2022/04/07 04:03:10;;;;;;;17.23;3.60;;;9.40;99.90;;;;;;5034454;28;20041;-75
2022/04/07 04:05:35;;;;;;;21.23;3.67;;;9.40;99.90;;;;;;5035567;28;20037;-71
2022/04/07 04:08:01;;;;;;;26.43;4.50;;;9.30;99.90;;;;;;5037272;28;21588;-75
2022/04/07 04:10:27;;;;;;;32.73;3.90;;;9.40;99.90;;;;;;5037466;28;20041;-71
2022/04/07 04:12:52;;;;;;;26.77;4.07;;;9.30;99.90;;;;;;5036306;28;20350;-71
2022/04/07 04:15:18;;;;;;;19.60;3.70;;;9.30;99.90;;;;;;5034176;28;20045;-74
2022/04/07 04:17:44;;;;;;;25.70;3.93;;;9.20;99.90;;;;;;5037433;28;20511;-75
2022/04/07 04:20:10;;;;;;;24.88;3.28;;;9.20;99.90;;;;;;5040868;28;20051;-74
2022/04/07 04:22:36;;;;;;;21.48;3.45;;;9.20;99.90;;;;;;5040405;28;20328;-71
2022/04/07 04:25:02;;;;;;;42.95;4.82;;;9.20;99.90;;;;;;5036829;28;20374;-73
2022/04/07 04:27:28;;;;;;;28.98;4.15;;;9.10;99.90;;;;;;5040516;28;20049;-74
2022/04/07 04:29:54;;;;;;;29.60;4.13;;;9.10;99.90;;;;;;5019244;28;20797;-71
2022/04/07 04:32:19;;;;;;;29.80;4.90;;;9.10;99.90;;;;;;5039785;28;20035;-71
2022/04/07 04:34:45;;;;;;;28.33;4.27;;;9.10;99.90;;;;;;5038428;28;20400;-71
2022/04/07 04:37:10;;;;;;;26.37;4.50;;;9.10;99.90;;;;;;5044423;28;20164;-71
2022/04/07 04:39:36;;;;;;;26.20;3.60;;;9.10;99.90;;;;;;5037586;28;20049;-71
2022/04/07 04:42:04;;;;;;;32.88;4.72;;;9.10;99.90;;;;;;5034124;28;20073;-71
2022/04/07 04:44:29;;;;;;;25.63;3.95;;;9.00;99.90;;;;;;5018986;28;20037;-71
2022/04/07 04:46:55;;;;;;;21.80;3.73;;;9.00;99.90;;;;;;5037595;28;20029;-72
2022/04/07 04:49:21;;;;;;;25.83;3.73;;;9.00;99.90;;;;;;5030375;28;20351;-73
2022/04/07 04:51:47;;;;;;;27.97;4.63;;;9.00;99.90;;;;;;5038008;28;20270;-70
2022/04/07 04:54:13;;;;;;;28.15;3.97;;;9.00;99.90;;;;;;5031847;28;20103;-71
2022/04/07 04:56:39;;;;;;;18.83;4.47;;;8.90;99.90;;;;;;5037323;28;20037;-71
2022/04/07 04:59:05;;;;;;;20.98;3.10;;;8.90;99.90;;;;;;5029913;28;20541;-71
2022/04/07 05:01:31;;;;;;;23.57;3.53;;;8.90;99.90;;;;;;5041838;28;20040;-71
2022/04/07 05:03:56;;;;;;;17.93;2.63;;;8.90;99.90;;;;;;5038231;28;20048;-72
2022/04/07 05:06:22;;;;;;;11.00;2.17;;;8.80;99.90;;;;;;5032466;28;20119;-72
2022/04/07 05:08:47;;;;;;;10.47;2.40;;;8.70;99.90;;;;;;5041903;28;20307;-71
2022/04/07 05:11:13;;;;;;;10.20;1.40;;;8.50;99.90;;;;;;5036779;28;20049;-72
2022/04/07 05:13:38;;;;;;;9.63;1.50;;;8.30;99.90;;;;;;5036084;28;20037;-72
2022/04/07 05:16:05;;;;;;;5.87;1.50;;;8.10;99.90;;;;;;5036385;28;20045;-71
2022/04/07 05:18:31;;;;;;;9.20;1.63;;;7.90;99.90;;;;;;5038154;28;20489;-72
2022/04/07 05:20:56;;;;;;;13.27;1.85;;;7.70;99.90;;;;;;5034143;28;20056;-72
2022/04/07 05:23:22;;;;;;;12.37;3.97;;;7.70;99.90;;;;;;5036970;28;20175;-72
2022/04/07 05:25:48;;;;;;;19.17;1.80;;;7.60;99.90;;;;;;5033871;28;20038;-71
2022/04/07 05:28:13;;;;;;;5.63;1.07;;;7.50;99.90;;;;;;5040283;28;20310;-71
2022/04/07 05:30:39;;;;;;;4.30;0.80;;;7.40;99.90;;;;;;5023634;28;20305;-72
2022/04/07 05:33:04;;;;;;;4.13;0.90;;;7.40;99.90;;;;;;5039962;28;20045;-72
2022/04/07 05:35:30;;;;;;;4.40;0.77;;;7.20;99.90;;;;;;5045718;28;20565;-72
2022/04/07 05:38:01;;;;;;;2.33;0.90;;;7.10;99.90;;;;;;5036553;28;20043;-72
2022/04/07 05:40:27;;;;;;;2.90;0.90;;;7.00;99.90;;;;;;5039381;28;20036;-72
2022/04/07 05:42:53;;;;;;;5.50;0.93;;;7.00;99.90;;;;;;5042593;28;20500;-72
2022/04/07 05:45:18;;;;;;;3.70;1.10;;;6.90;99.90;;;;;;5019255;28;20132;-72
2022/04/07 05:47:44;;;;;;;6.93;1.13;;;6.80;99.90;;;;;;5039578;28;20132;-73
2022/04/07 05:50:10;;;;;;;13.33;1.90;;;6.80;99.90;;;;;;5043044;28;20045;-72
2022/04/07 05:52:36;;;;;;;9.02;1.38;;;6.70;99.90;;;;;;5044312;28;20099;-72
2022/04/07 05:55:03;;;;;;;4.30;0.70;;;6.60;99.90;;;;;;5033354;28;20067;-73
2022/04/07 05:57:32;;;;;;;;;;;6.60;99.90;;;;;;5027996;28;20041;-71
2022/04/07 06:00:19;;;;;;;5.50;0.90;;;6.50;99.90;;;;;;5027338;28;19921;-73
2022/04/07 06:02:45;;;;;;;3.08;0.70;;;6.40;99.90;;;;;;5036764;28;20049;-72
2022/04/07 06:05:12;;;;;;;;;;;6.40;99.90;;;;;;5040421;28;20090;-71
2022/04/07 06:07:38;;;;;;;3.10;0.52;;;6.30;99.90;;;;;;5036655;28;19931;-72
2022/04/07 06:10:07;;;;;;;3.88;0.70;;;6.30;99.90;;;;;;5027633;28;20640;-73
2022/04/07 06:12:33;;;;;;;4.25;0.55;;;6.20;99.90;;;;;;5045225;28;20123;-74
2022/04/07 06:14:58;;;;;;;6.10;1.20;;;6.20;99.90;;;;;;5040981;28;20174;-74
2022/04/07 06:17:40;;;;;;;4.33;0.53;;;6.30;99.90;;;;;;5037116;28;20894;-74
2022/04/07 06:20:07;;;;;;;3.65;0.80;;;6.30;99.90;;;;;;5038323;28;20047;-75
2022/04/07 06:22:33;;;;;;;4.07;0.50;;;6.30;99.90;;;;;;5040330;28;20049;-75
2022/04/07 06:24:59;;;;;;;1.58;0.47;;;6.30;99.90;;;;;;5034711;28;20079;-75
2022/04/07 06:27:33;;;;;;;3.23;0.70;;;6.30;99.90;;;;;;5035483;28;20049;-74
2022/04/07 06:29:58;;;;;;;6.20;0.65;;;6.30;99.90;;;;;;5017317;28;20475;-74
2022/04/07 06:32:24;;;;;;;3.67;0.50;;;6.20;99.90;;;;;;5040290;28;20136;-74
2022/04/07 06:34:50;;;;;;;3.77;0.53;;;6.30;99.90;;;;;;5038629;28;20455;-73
2022/04/07 06:37:15;;;;;;;4.10;0.50;;;6.30;99.90;;;;;;5036890;28;20496;-73
2022/04/07 06:39:41;;;;;;;4.13;0.87;;;6.30;99.90;;;;;;5040696;28;20533;-72
2022/04/07 06:42:07;;;;;;;3.17;0.67;;;6.30;99.90;;;;;;5042539;28;20045;-72
2022/04/07 06:44:32;;;;;;;6.78;0.77;;;6.40;99.90;;;;;;5039227;28;20460;-71
2022/04/07 06:46:58;;;;;;;2.03;0.60;;;6.30;99.90;;;;;;5061107;23;20570;-82
2022/04/07 06:49:24;;;;;;;5.73;0.67;;;6.40;99.90;;;;;;5033012;28;20131;-82
2022/04/07 06:51:49;;;;;;;7.10;0.93;;;6.50;99.90;;;;;;5059447;28;20636;-82
2022/04/07 06:54:15;;;;;;;5.17;0.90;;;6.40;99.90;;;;;;5032558;28;20593;-82
2022/04/07 06:56:41;;;;;;;5.07;0.80;;;6.40;99.90;;;;;;5003832;28;20490;-82
2022/04/07 06:59:06;;;;;;;9.20;1.80;;;6.50;99.90;;;;;;5022190;28;20063;-84
2022/04/07 07:01:32;;;;;;;2.00;0.63;;;6.50;99.90;;;;;;5001383;28;20033;-86
2022/04/07 07:03:58;;;;;;;6.32;1.13;;;6.40;99.90;;;;;;5025043;28;20299;-83
2022/04/07 07:06:24;;;;;;;8.37;1.10;;;6.50;99.90;;;;;;5021825;28;20067;-84
2022/04/07 07:08:50;;;;;;;3.23;0.70;;;6.50;99.90;;;;;;5022285;28;20044;-83
2022/04/07 07:11:16;;;;;;;3.03;0.82;;;6.50;99.90;;;;;;5004540;28;20281;-84
2022/04/07 07:13:42;;;;;;;7.60;0.90;;;6.60;99.90;;;;;;5032662;28;20260;-83
2022/04/07 07:16:07;;;;;;;2.90;0.73;;;6.60;99.90;;;;;;5005998;28;20116;-84
2022/04/07 07:18:38;;;;;;;2.53;1.37;;;6.60;99.90;;;;;;5019073;28;20303;-84
2022/04/07 07:21:04;;;;;;;3.90;0.73;;;6.60;99.90;;;;;;5006835;28;20037;-84
2022/04/07 07:23:32;;;;;;;3.80;1.13;;;6.60;99.90;;;;;;5018706;28;20045;-84
2022/04/07 07:25:57;;;;;;;8.13;0.90;;;6.70;99.90;;;;;;5021724;28;20174;-83
2022/04/07 07:28:23;;;;;;;7.33;0.83;;;6.70;99.90;;;;;;5002078;28;20037;-85
2022/04/07 07:30:49;;;;;;;8.27;1.67;;;6.70;99.90;;;;;;5018465;28;20069;-85
2022/04/07 07:33:15;;;;;;;4.55;1.20;;;6.70;99.90;;;;;;5008066;28;20048;-84
2022/04/07 07:35:45;;;;;;;2.87;0.67;;;6.70;99.90;;;;;;5001718;28;20527;-84
2022/04/07 07:38:11;;;;;;;8.57;1.13;;;6.70;99.90;;;;;;5020151;28;20064;-81
2022/04/07 07:40:38;;;;;;;8.68;0.75;;;6.70;99.90;;;;;;5003597;28;20072;-81
2022/04/07 07:43:04;;;;;;;4.50;1.08;;;6.80;99.90;;;;;;5004736;28;20568;-84
2022/04/07 07:45:33;;;;;;;;;;;6.80;99.90;;;;;;5006358;28;20075;-84
2022/04/07 07:47:59;;;;;;;5.45;0.60;;;6.70;99.90;;;;;;5020179;28;20159;-84
2022/04/07 07:50:25;;;;;;;5.68;0.90;;;6.80;99.90;;;;;;5006082;28;20040;-83
2022/04/07 07:52:51;;;;;;;4.38;1.30;;;6.90;99.90;;;;;;5023164;28;20048;-84
2022/04/07 07:55:18;;;;;;;6.47;1.50;;;6.90;99.90;;;;;;5005740;28;20470;-83
2022/04/07 07:57:44;;;;;;;8.38;1.40;;;7.00;99.90;;;;;;5004495;28;20213;-85
2022/04/07 08:00:11;;;;;;;6.10;0.83;;;7.10;99.90;;;;;;5000069;28;20045;-84
2022/04/07 08:02:38;;;;;;;3.83;1.10;;;7.20;99.90;;;;;;5012098;28;20044;-85
2022/04/07 08:05:07;;;;;;;5.82;0.70;;;7.30;99.90;;;;;;5011415;28;20471;-84
2022/04/07 08:07:38;;;;;;;4.22;1.27;;;7.40;99.90;;;;;;5009259;28;20045;-84
2022/04/07 08:10:04;;;;;;;5.18;1.38;;;7.40;99.90;;;;;;5007165;28;20629;-83
2022/04/07 08:12:30;;;;;;;5.88;0.80;;;7.50;99.90;;;;;;5013203;28;20151;-84
2022/04/07 08:14:56;;;;;;;5.33;0.73;;;7.60;99.90;;;;;;5017596;28;20304;-85
2022/04/07 08:17:21;;;;;;;5.33;0.83;;;7.60;99.90;;;;;;5014607;28;20040;-84
2022/04/07 08:19:47;;;;;;;3.97;1.50;;;7.80;99.90;;;;;;5004084;28;20044;-83
2022/04/07 08:22:13;;;;;;;10.73;1.20;;;7.80;99.90;;;;;;5006854;28;20141;-83
2022/04/07 08:24:39;;;;;;;6.57;0.90;;;7.90;99.90;;;;;;5006148;28;20805;-83
2022/04/07 08:27:05;;;;;;;7.87;0.70;;;8.00;99.90;;;;;;5011711;28;20048;-81
2022/04/07 08:29:31;;;;;;;4.88;0.73;;;8.20;99.90;;;;;;4997978;28;20403;-84
2022/04/07 08:31:57;;;;;;;7.43;1.23;;;8.20;99.90;;;;;;5005520;28;20056;-83
2022/04/07 08:34:25;;;;;;;8.33;0.60;;;8.20;99.90;;;;;;5008240;28;20041;-84
2022/04/07 08:36:51;;;;;;;3.53;0.68;;;8.30;99.90;;;;;;5004714;28;20048;-83
2022/04/07 08:39:17;;;;;;;3.30;0.80;;;8.40;99.90;;;;;;5007620;28;20502;-84
2022/04/07 08:41:45;;;;;;;7.90;0.75;;;8.40;99.90;;;;;;5003802;28;20134;-84
2022/04/07 08:44:11;;;;;;;9.63;0.90;;;8.50;99.90;;;;;;5022563;28;20048;-82
2022/04/07 08:46:39;;;;;;;;;;;8.60;99.90;;;;;;5006157;28;20676;-82
2022/04/07 08:49:06;;;;;;;11.70;1.13;;;8.60;99.90;;;;;;5007113;28;20014;-83
2022/04/07 08:51:32;;;;;;;4.60;0.90;;;8.60;99.90;;;;;;5001323;28;20041;-85
2022/04/07 08:53:58;;;;;;;9.23;1.45;;;8.60;99.90;;;;;;5019165;28;20446;-84
2022/04/07 08:56:24;;;;;;;11.43;1.42;;;8.70;99.90;;;;;;5000862;28;20045;-84
2022/04/07 08:58:51;;;;;;;4.18;1.15;;;8.60;99.90;;;;;;5000541;28;20365;-84
2022/04/07 09:01:16;;;;;;;5.68;1.60;;;8.80;99.90;;;;;;5000100;28;20037;-83
2022/04/07 09:03:43;;;;;;;5.57;1.10;;;8.90;99.90;;;;;;5020172;28;20546;-84
2022/04/07 09:06:10;;;;;;;5.82;1.42;;;9.00;99.90;;;;;;5007036;28;20083;-84
2022/04/07 09:08:38;;;;;;;8.50;1.38;;;9.10;99.90;;;;;;5019578;28;20051;-84
2022/04/07 09:11:06;;;;;;;5.07;1.15;;;9.20;99.90;;;;;;5017209;28;20403;-85
2022/04/07 09:13:39;;;;;;;8.60;2.45;;;9.30;99.90;;;;;;5004544;28;20072;-84
2022/04/07 09:16:13;;;;;;;6.80;1.75;;;9.30;99.90;;;;;;5000603;28;20072;-85
2022/04/07 09:18:48;;;;;;;8.20;1.80;;;9.30;99.90;;;;;;5001611;28;20164;-84
2022/04/07 09:21:34;;;;;;;9.88;2.55;;;9.30;99.90;;;;;;5021627;28;20052;-82
2022/04/07 09:24:00;;;;;;;12.02;1.70;;;9.30;99.90;;;;;;5016788;28;20589;-85
2022/04/07 09:26:27;;;;;;;8.45;1.77;;;9.30;99.90;;;;;;5023224;28;20132;-82
2022/04/07 09:28:57;;;;;;;7.25;1.40;;;9.30;99.90;;;;;;5004285;28;20132;-84
2022/04/07 09:31:23;;;;;;;10.15;1.52;;;9.40;99.90;;;;;;5008687;28;20092;-82
2022/04/07 09:33:59;;;;;;;10.60;1.60;;;9.50;99.90;;;;;;5008433;28;20048;-84
2022/04/07 09:36:25;;;;;;;9.32;1.48;;;9.50;99.90;;;;;;5002987;28;20041;-81
2022/04/07 09:38:55;;;;;;;6.60;1.40;;;9.60;99.90;;;;;;5009507;28;20040;-85
2022/04/07 09:41:22;;;;;;;13.18;1.95;;;9.50;99.90;;;;;;5028387;28;20045;-84
2022/04/07 09:43:53;;;;;;;10.85;1.77;;;9.40;99.90;;;;;;5010334;28;20590;-84
2022/04/07 09:46:20;;;;;;;13.65;2.70;;;9.30;99.90;;;;;;5025180;28;20057;-85
2022/04/07 09:49:04;;;;;;;9.98;1.77;;;9.30;99.90;;;;;;5028926;28;20049;-84
2022/04/07 09:51:40;;;;;;;11.10;2.75;;;9.30;99.90;;;;;;5028615;28;20055;-82
2022/04/07 09:54:11;;;;;;;10.68;1.23;;;9.40;99.90;;;;;;5030155;28;20037;-86
2022/04/07 09:56:37;;;;;;;15.85;1.65;;;9.40;99.90;;;;;;5005805;28;20041;-81
2022/04/07 09:59:06;;;;;;;7.93;1.60;;;9.50;99.90;;;;;;5004408;28;20037;-84
2022/04/07 10:01:35;;;;;;;10.77;1.27;;;9.60;99.90;;;;;;5025018;28;20068;-85
2022/04/07 10:04:03;;;;;;;3.88;1.20;;;9.60;99.90;;;;;;5019475;28;20479;-82
2022/04/07 10:06:31;;;;;;;6.72;1.65;;;9.40;99.90;;;;;;5021478;28;20065;-86
2022/04/07 10:09:00;;;;;;;11.00;1.55;;;9.10;99.90;;;;;;5010086;28;20044;-84
2022/04/07 10:11:28;;;;;;;7.90;2.15;;;8.90;99.90;;;;;;5009147;28;20542;-83
2022/04/07 10:13:56;;;;;;;7.30;1.50;;;8.80;99.90;;;;;;5008917;28;20137;-85
2022/04/07 10:16:22;;;;;;;11.77;2.63;;;8.70;99.90;;;;;;5010685;28;20049;-84
2022/04/07 10:19:01;;;;;;;15.35;1.60;;;8.70;99.90;;;;;;5008521;28;20045;-84
2022/04/07 10:21:51;;;;;;;10.05;2.60;;;8.70;99.90;;;;;;5002333;28;20370;-83
2022/04/07 10:24:47;;;;;;;6.60;1.58;;;8.80;99.90;;;;;;5006117;28;20037;-84
2022/04/07 10:27:15;;;;;;;8.80;1.70;;;8.90;99.90;;;;;;5008414;28;20632;-84
2022/04/07 10:30:11;;;;;;;9.50;1.77;;;8.90;99.90;;;;;;5023733;28;20072;-84
2022/04/07 10:32:45;;;;;;;14.82;2.65;;;8.90;99.90;;;;;;5007108;28;20516;-82
2022/04/07 10:35:29;;;;;;;14.85;2.40;;;9.00;99.90;;;;;;5025078;28;20041;-84
2022/04/07 10:38:03;;;;;;;8.43;1.70;;;9.00;99.90;;;;;;5007268;28;20671;-85
2022/04/07 10:40:50;;;;;;;11.85;1.90;;;9.00;99.90;;;;;;5021985;28;20062;-85
2022/04/07 10:43:25;;;;;;;6.68;1.20;;;9.00;99.90;;;;;;4995682;28;20384;-83
2022/04/07 10:46:05;;;;;;;13.93;1.65;;;9.00;99.90;;;;;;5010129;28;20101;-84
2022/04/07 10:48:32;;;;;;;11.93;2.00;;;9.00;99.90;;;;;;5013955;28;20136;-85
2022/04/07 10:51:09;;;;;;;11.13;3.28;;;9.00;99.90;;;;;;5017547;28;20049;-83
2022/04/07 10:53:53;;;;;;;16.85;2.05;;;9.00;99.90;;;;;;5021390;28;20195;-85
2022/04/07 10:56:25;;;;;;;9.15;1.85;;;9.00;99.90;;;;;;4996547;28;20029;-85
2022/04/07 10:58:54;;;;;;;8.57;1.70;;;9.00;99.90;;;;;;5017234;28;20401;-83
2022/04/07 11:01:32;;;;;;;7.38;1.42;;;9.00;99.90;;;;;;5007276;28;20482;-85
2022/04/07 11:04:22;;;;;;;9.30;1.55;;;9.00;99.90;;;;;;5019526;28;20084;-84
2022/04/07 11:09:48;;;;;;;13.65;1.85;;;9.30;99.90;;;;;;5016713;28;20531;-84
2022/04/07 11:12:25;;;;;;;8.88;1.80;;;9.30;99.90;;;;;;5035999;28;20314;-85
2022/04/07 11:14:56;;;;;;;12.32;1.77;;;9.50;99.90;;;;;;5004074;28;20515;-84
2022/04/07 11:17:30;;;;;;;7.60;1.60;;;9.40;99.90;;;;;;5007361;28;20045;-85
2022/04/07 11:20:13;;;;;;;10.40;1.70;;;9.40;99.90;;;;;;5007411;28;20063;-85
2022/04/07 11:23:05;;;;;;;18.90;2.83;;;9.40;99.90;;;;;;5017840;28;20049;-82
2022/04/07 11:25:36;;;;;;;18.25;2.28;;;9.40;99.90;;;;;;5020978;28;20117;-84
2022/04/07 11:28:14;;;;;;;17.13;2.17;;;9.50;99.90;;;;;;5004526;28;20041;-85
2022/04/07 11:30:47;;;;;;;10.00;1.52;;;9.60;99.90;;;;;;5007051;28;20743;-85
2022/04/07 11:33:28;;;;;;;13.65;2.00;;;9.60;99.90;;;;;;5002905;28;20044;-85
2022/04/07 11:36:00;;;;;;;9.30;1.50;;;9.60;99.90;;;;;;5002594;28;20518;-85
2022/04/07 11:38:37;;;;;;;9.98;1.80;;;9.70;99.90;;;;;;5021985;28;20656;-84
2022/04/07 11:41:12;;;;;;;9.20;2.00;;;9.70;99.90;;;;;;5001879;28;20048;-85
2022/04/07 11:43:49;;;;;;;11.05;1.80;;;9.80;99.90;;;;;;5001883;28;20041;-85
2022/04/07 11:46:26;;;;;;;10.52;1.80;;;9.80;99.90;;;;;;4998943;28;20527;-84
2022/04/07 11:48:52;;;;;;;6.43;1.63;;;9.90;99.90;;;;;;5003400;28;20048;-85
2022/04/07 11:51:17;;;;;;;14.75;2.67;;;10.00;99.90;;;;;;5000529;28;20860;-83
2022/04/07 11:53:52;;;;;;;8.97;1.70;;;10.10;99.90;;;;;;5001779;28;20041;-85
2022/04/07 11:56:25;;;;;;;10.48;1.77;;;10.20;99.90;;;;;;5004356;28;20290;-84
2022/04/07 11:58:59;;;;;;;11.90;2.13;;;10.30;99.90;;;;;;5009955;28;20411;-82
2022/04/07 12:01:25;;;;;;;12.73;1.75;;;10.50;99.90;;;;;;5012606;28;20041;-82
2022/04/07 12:03:55;;;;;;;8.98;1.30;;;10.70;99.90;;;;;;5003969;28;20090;-85
2022/04/07 12:06:25;;;;;;;6.20;1.30;;;10.90;98.00;;;;;;5004895;28;20136;-85
2022/04/07 12:08:51;;;;;;;8.60;1.50;;;10.80;99.40;;;;;;4999795;28;20095;-84
2022/04/07 12:11:22;;;;;;;15.40;1.95;;;10.60;99.90;;;;;;4998906;28;20735;-85
2022/04/07 12:13:53;;;;;;;10.65;2.13;;;10.30;99.90;;;;;;5003122;28;20045;-85
2022/04/07 12:16:22;;;;;;;10.82;1.45;;;9.80;99.90;;;;;;5017611;28;20045;-82
2022/04/07 12:18:59;;;;;;;3.88;1.05;;;9.40;99.90;;;;;;5004400;28;20052;-82
2022/04/07 12:21:26;;;;;;;8.05;1.58;;;8.50;99.90;;;;;;5000271;28;20048;-80
2022/04/07 12:24:13;;;;;;;8.55;1.65;;;7.90;99.90;;;;;;5015573;28;20052;-83
2022/04/07 12:27:00;;;;;;;12.60;1.75;;;7.90;99.90;;;;;;4994402;28;20132;-81
2022/04/07 12:29:31;;;;;;;8.35;1.77;;;8.10;99.90;;;;;;5000170;28;20045;-84
2022/04/07 12:32:06;;;;;;;12.23;2.33;;;8.40;99.90;;;;;;5023087;28;20086;-83
2022/04/07 12:34:33;;;;;;;9.07;1.58;;;8.60;99.90;;;;;;5006199;28;20048;-83
2022/04/07 12:36:59;;;;;;;;;;;8.70;99.90;;;;;;5004626;28;20049;-84
2022/04/07 12:39:34;;;;;;;8.55;1.73;;;8.90;99.90;;;;;;5008849;28;19927;-82
2022/04/07 12:42:10;;;;;;;6.30;1.15;;;8.90;99.90;;;;;;5003262;28;20051;-83
2022/04/07 12:44:38;;;;;;;4.68;1.10;;;8.60;99.90;;;;;;5005718;28;20045;-85
2022/04/07 12:47:13;;;;;;;7.40;1.10;;;8.20;99.90;;;;;;5042820;22;20064;-69
2022/04/07 12:49:39;;;;;;;9.82;2.00;;;7.90;99.90;;;;;;5047338;28;20377;-69
2022/04/07 12:52:14;;;;;;;5.97;1.33;;;7.70;99.90;;;;;;5043153;28;20043;-69
2022/04/07 12:55:01;;;;;;;11.35;1.60;;;7.80;99.90;;;;;;5045115;28;20414;-69
2022/04/07 12:57:41;;;;;;;6.70;1.10;;;8.00;99.90;;;;;;5030228;28;20136;-69
2022/04/07 13:00:10;;;;;;;5.47;1.45;;;8.30;99.90;;;;;;5038708;28;20045;-69
2022/04/07 13:02:54;;;;;;;8.55;1.35;;;8.50;99.90;;;;;;5024787;28;20328;-69